Flight Track Log - Related Links

Times and Time Zones

All times are in EDT time to prevent confusion due to time zone crossing. See the UAL4476 flight status page for this flight to view local times or setup timezone preferences in your user account.

Time Position Orientation Groundspeed Altitude Reporting Facility
EDT Latitude Longitude Course Direction KTS MPH feet Rate Location/Type
Wed 08:50:46 AM 41.4153 -81.8403 73° East 166 191 1,700  Level Cleveland Center
Wed 08:51:22 AM 41.4425 -81.8269 20° North 171 197 3,000 1,607 Climbing Cleveland Center
Wed 08:52:38 AM 41.5056 -81.7781 30° Northeast 222 255 4,700 1,839 Climbing Cleveland Center
Wed 08:53:39 AM 41.5625 -81.7181 38° Northeast 244 281 7,200 2,380 Climbing Cleveland Center
Wed 08:54:39 AM 41.6236 -81.6553 38° Northeast 265 305 9,500 2,100 Climbing Cleveland Center
Wed 08:55:39 AM 41.6844 -81.5869 40° Northeast 282 325 11,400 1,450 Climbing Cleveland Center
Wed 08:56:00 AM 41.8555 -81.2263 73° East  Level FlightAware Approximate
Wed 08:56:39 AM 41.7625 -81.5044 38° Northeast 301 346 12,400  Level Cleveland Center
Wed 08:57:39 AM 41.8339 -81.4108 44° Northeast 335 386 13,700 1,300 Climbing Cleveland Center
Wed 08:58:39 AM 41.8642 -81.2719 74° East 350 403 15,000 1,250 Climbing Cleveland Center
Wed 08:59:39 AM 41.8858 -81.1242 79° East 381 438 16,200 1,200 Climbing Cleveland Center
Wed 09:00:39 AM 41.9092 -80.9767 78° East 398 458 17,400 1,000 Climbing Cleveland Center
Wed 09:01:39 AM 41.9325 -80.8231 78° East 406 467 18,200 950 Climbing Cleveland Center
Wed 09:02:39 AM 41.9578 -80.6725 77° East 412 474 19,300 1,100 Climbing Cleveland Center
Wed 09:03:39 AM 41.9808 -80.5133 79° East 419 482 20,400 1,008 Climbing Cleveland Center
Wed 09:04:38 AM 42.0056 -80.3708 77° East 428 493 21,300 950 Climbing Cleveland Center
Wed 09:05:39 AM 42.0303 -80.2086 78° East 434 499 22,300 942 Climbing Cleveland Center
Wed 09:06:39 AM 42.0547 -80.0436 79° East 441 507 23,200 850 Climbing Cleveland Center
Wed 09:07:39 AM 42.0806 -79.8586 79° East 441 507 24,000 950 Climbing Cleveland Center
Wed 09:08:39 AM 42.1067 -79.6931 78° East 447 514 25,100 1,250 Climbing Cleveland Center
Wed 09:09:39 AM 42.1303 -79.5278 79° East 447 514 26,500 1,250 Climbing Cleveland Center
Wed 09:10:39 AM 42.1536 -79.3647 79° East 447 514 27,600 1,000 Climbing Cleveland Center
Wed 09:11:39 AM 42.1767 -79.1992 79° East 447 514 28,500 950 Climbing Cleveland Center
Wed 09:12:39 AM 42.1997 -79.0333 79° East 447 514 29,500 1,000 Climbing Cleveland Center
Wed 09:13:39 AM 42.2206 -78.8842 79° East 447 514 30,500 1,050 Climbing Cleveland Center
Wed 09:14:39 AM 42.2428 -78.7125 80° East 447 514 31,600 1,059 Climbing Cleveland Center
Wed 09:15:38 AM 42.2650 -78.5350 80° East 459 528 32,600 700 Climbing Cleveland Center
Wed 09:16:39 AM 42.2867 -78.3603 80° East 466 536 33,000 198 Climbing Cleveland Center
Wed 09:17:39 AM 42.3100 -78.1742 80° East 485 558 33,000  Level Cleveland Center
Wed 09:18:39 AM 42.3308 -77.9850 81° East 497 572 33,000  Level Cleveland Center
Wed 09:19:39 AM 42.3533 -77.7903 81° East 515 593 33,000  Level Cleveland Center
Wed 09:21:27 AM 42.3917 -77.4536 81° East 515 593 33,000  Level Boston Center
Wed 09:22:27 AM 42.4094 -77.2861 82° East 503 579 33,000  Level Boston Center
Wed 09:23:28 AM 42.4356 -77.0631 81° East 498 573 33,000  Level Boston Center
Wed 09:24:27 AM 42.4553 -76.8786 82° East 498 573 33,000  Level Boston Center
Wed 09:25:27 AM 42.4772 -76.6914 81° East 498 573 33,000  Level Boston Center
Wed 09:26:25 AM 42.4967 -76.4983 82° East 504 580 33,000  Level Boston Center
Wed 09:27:25 AM 42.5181 -76.3025 82° East 512 589 33,000  Level Boston Center
Wed 09:28:26 AM 42.5392 -76.1092 82° East 519 597 33,000  Level Boston Center
Wed 09:29:25 AM 42.5558 -75.9128 83° East 519 597 33,000  Level Boston Center
Wed 09:30:25 AM 42.5739 -75.7222 83° East 519 597 33,000  Level Boston Center
Wed 09:31:26 AM 42.5936 -75.5369 82° East 508 585 33,000  Level Boston Center
Wed 09:32:26 AM 42.6111 -75.3489 83° East 503 579 33,000  Level Boston Center
Wed 09:33:26 AM 42.6281 -75.1775 82° East 503 579 33,000  Level Boston Center
Wed 09:34:27 AM 42.6428 -74.9917 84° East 503 579 33,000  Level Boston Center
Wed 09:35:25 AM 42.6614 -74.8006 82° East 503 579 33,000  Level Boston Center
Wed 09:36:26 AM 42.6778 -74.6147 83° East 503 579 33,000  Level Boston Center
Wed 09:37:27 AM 42.6936 -74.4261 83° East 503 579 33,000  Level Boston Center
Wed 09:38:25 AM 42.7114 -74.2286 83° East 503 579 33,000  Level Boston Center
Wed 09:39:26 AM 42.7289 -74.0314 83° East 511 588 33,000  Level Boston Center
Wed 09:40:26 AM 42.7419 -73.8367 85° East 521 600 33,000  Level Boston Center
Wed 09:41:27 AM 42.7317 -73.6442 94° East 516 594 33,000  Level Boston Center
Wed 09:42:25 AM 42.7106 -73.4489 98° East 516 594 33,000 -203 Level Boston Center
Wed 09:43:25 AM 42.6894 -73.2422 98° East 516 594 32,600 -793 Descending Boston Center
Wed 09:44:26 AM 42.6697 -73.0500 98° East 516 594 31,400 -1,300 Descending Boston Center
Wed 09:45:25 AM 42.6456 -72.8606 100° East 516 594 30,000 -2,000 Descending Boston Center
Wed 09:46:26 AM 42.6231 -72.6714 99° East 511 588 27,400 -2,826 Descending Boston Center
Wed 09:47:26 AM 42.6047 -72.4908 98° East 498 573 24,300 -3,273 Descending Boston Center
Wed 09:48:27 AM 42.5794 -72.3161 101° East 488 562 20,800 -3,025 Descending Boston Center
Wed 09:49:27 AM 42.5564 -72.1414 100° East 474 545 18,200 -2,492 Descending Boston Center
Wed 09:50:25 AM 42.5392 -71.9892 99° East 460 529 15,900 -2,542 Descending Boston Center
Wed 09:51:25 AM 42.5236 -71.8175 97° East 434 499 13,200 -2,300 Descending Boston Center
Wed 09:52:25 AM 42.5103 -71.6683 97° East 405 466 11,300 -1,610 Descending Boston Center
Wed 09:52:47 AM 42.5000 -71.6000 102° East 398 458 11,000 -220 Descending KA90
Wed 09:53:47 AM 42.4833 -71.4500 99° East 408 470 11,000 -200 Level KA90
Wed 09:54:47 AM 42.4833 -71.3167 90° East 338 389 10,600 -992 Descending KA90
Wed 09:55:48 AM 42.4667 -71.2000 101° East 334 384 9,000 -1,800 Descending KA90
Wed 09:56:47 AM 42.4500 -71.0667 100° East 317 365 7,000 -1,361 Descending KA90
Wed 09:57:47 AM 42.4500 -70.9833 90° East 263 303 6,300 -550 Descending KA90
Wed 09:58:47 AM 42.4500 -70.9000 90° East 232 267 5,900 -182 Descending KA90
Wed 09:59:26 AM 42.4600 -70.8444 76° East 228 262 6,000 -485 Climbing Boston Center
Wed 10:00:26 AM 42.4714 -70.7625 79° East 228 262 5,100 -942 Descending Boston Center
Wed 10:01:27 AM 42.4806 -70.6806 81° East 218 251 4,100 -595 Descending Boston Center
Wed 10:02:27 AM 42.4425 -70.6536 152° Southeast 132 152 3,900 -102 Descending Boston Center
Wed 10:03:25 AM 42.4081 -70.7081 229° Southwest 104 120 3,900 -305 Level Boston Center
Wed 10:04:25 AM 42.4028 -70.7700 263° West 116 133 3,300 -744 Descending Boston Center
Wed 10:05:26 AM 42.3911 -70.8294 255° West 153 176 2,400 -843 Descending Boston Center
Wed 10:06:26 AM 42.3794 -70.8858 254° West 169 194 1,600 -805 Descending Boston Center
Wed 10:06:48 AM 42.3833 -70.9000 290° West 140 161 1,300 -732 Descending KA90
Wed 10:07:48 AM 42.3667 -70.9500 246° West 131 151 600 -700 Descending KA90

Login

Don't have an account? Register now (free) for customized features, flight alerts, and more!